sensor_id;sensor_type;location;lat;lon;timestamp;temperature;humidity
52413;DHT22;38339;53.234;6.578;2022-07-18T00:01:49;18.40;99.90
52413;DHT22;38339;53.234;6.578;2022-07-18T00:04:14;18.50;99.90
52413;DHT22;38339;53.234;6.578;2022-07-18T00:06:40;18.40;99.90
52413;DHT22;38339;53.234;6.578;2022-07-18T00:09:07;18.40;99.90
52413;DHT22;38339;53.234;6.578;2022-07-18T00:11:33;18.40;99.90
52413;DHT22;38339;53.234;6.578;2022-07-18T00:13:59;18.40;99.90
52413;DHT22;38339;53.234;6.578;2022-07-18T00:16:24;18.40;99.90
52413;DHT22;38339;53.234;6.578;2022-07-18T00:18:50;18.40;99.90
52413;DHT22;38339;53.234;6.578;2022-07-18T00:21:17;18.40;99.90
52413;DHT22;38339;53.234;6.578;2022-07-18T00:23:42;18.40;99.90
52413;DHT22;38339;53.234;6.578;2022-07-18T00:26:08;18.40;99.90
52413;DHT22;38339;53.234;6.578;2022-07-18T00:28:34;18.40;99.90
52413;DHT22;38339;53.234;6.578;2022-07-18T00:30:59;18.40;99.90
52413;DHT22;38339;53.234;6.578;2022-07-18T00:33:25;18.30;99.90
52413;DHT22;38339;53.234;6.578;2022-07-18T00:35:51;18.30;99.90
52413;DHT22;38339;53.234;6.578;2022-07-18T00:38:17;18.40;99.90
52413;DHT22;38339;53.234;6.578;2022-07-18T00:40:43;18.40;99.90
52413;DHT22;38339;53.234;6.578;2022-07-18T00:43:14;18.40;99.90
52413;DHT22;38339;53.234;6.578;2022-07-18T00:45:47;18.40;99.90
52413;DHT22;38339;53.234;6.578;2022-07-18T00:48:13;18.40;99.90
52413;DHT22;38339;53.234;6.578;2022-07-18T00:50:40;18.30;99.90
52413;DHT22;38339;53.234;6.578;2022-07-18T00:53:06;18.30;99.90
52413;DHT22;38339;53.234;6.578;2022-07-18T00:55:33;18.30;99.90
52413;DHT22;38339;53.234;6.578;2022-07-18T00:57:59;18.20;99.90
52413;DHT22;38339;53.234;6.578;2022-07-18T01:00:25;18.20;99.90
52413;DHT22;38339;53.234;6.578;2022-07-18T01:03:10;18.20;99.90
52413;DHT22;38339;53.234;6.578;2022-07-18T01:05:36;18.10;99.90
52413;DHT22;38339;53.234;6.578;2022-07-18T01:08:02;18.10;99.90
52413;DHT22;38339;53.234;6.578;2022-07-18T01:10:28;18.10;99.90
52413;DHT22;38339;53.234;6.578;2022-07-18T01:12:54;18.10;99.90
52413;DHT22;38339;53.234;6.578;2022-07-18T01:15:19;18.10;99.90
52413;DHT22;38339;53.234;6.578;2022-07-18T01:17:45;18.00;99.90
52413;DHT22;38339;53.234;6.578;2022-07-18T01:20:11;18.00;99.90
52413;DHT22;38339;53.234;6.578;2022-07-18T01:22:37;18.00;99.90
52413;DHT22;38339;53.234;6.578;2022-07-18T01:25:06;18.00;99.90
52413;DHT22;38339;53.234;6.578;2022-07-18T01:27:32;18.00;99.90
52413;DHT22;38339;53.234;6.578;2022-07-18T01:29:58;18.00;99.90
52413;DHT22;38339;53.234;6.578;2022-07-18T01:32:24;17.90;99.90
52413;DHT22;38339;53.234;6.578;2022-07-18T01:34:50;17.90;99.90
52413;DHT22;38339;53.234;6.578;2022-07-18T01:37:16;17.90;99.90
52413;DHT22;38339;53.234;6.578;2022-07-18T01:39:42;17.90;99.90
52413;DHT22;38339;53.234;6.578;2022-07-18T01:42:09;17.90;99.90
52413;DHT22;38339;53.234;6.578;2022-07-18T01:44:37;17.90;99.90
52413;DHT22;38339;53.234;6.578;2022-07-18T01:47:04;17.80;99.90
52413;DHT22;38339;53.234;6.578;2022-07-18T01:49:31;17.90;99.90
52413;DHT22;38339;53.234;6.578;2022-07-18T01:51:57;17.90;99.90
52413;DHT22;38339;53.234;6.578;2022-07-18T01:54:27;17.90;99.90
52413;DHT22;38339;53.234;6.578;2022-07-18T01:56:54;17.90;99.90
52413;DHT22;38339;53.234;6.578;2022-07-18T01:59:20;17.90;99.90
52413;DHT22;38339;53.234;6.578;2022-07-18T02:01:46;17.90;99.90
52413;DHT22;38339;53.234;6.578;2022-07-18T02:04:12;17.90;99.90
52413;DHT22;38339;53.234;6.578;2022-07-18T02:06:38;17.90;99.90
52413;DHT22;38339;53.234;6.578;2022-07-18T02:09:05;17.90;99.90
52413;DHT22;38339;53.234;6.578;2022-07-18T02:11:32;17.80;99.90
52413;DHT22;38339;53.234;6.578;2022-07-18T02:13:58;17.80;99.90
52413;DHT22;38339;53.234;6.578;2022-07-18T02:16:24;17.80;99.90
52413;DHT22;38339;53.234;6.578;2022-07-18T02:18:49;17.80;99.90
52413;DHT22;38339;53.234;6.578;2022-07-18T02:21:15;17.80;99.90
52413;DHT22;38339;53.234;6.578;2022-07-18T02:23:42;17.80;99.90
52413;DHT22;38339;53.234;6.578;2022-07-18T02:26:08;17.80;99.90
52413;DHT22;38339;53.234;6.578;2022-07-18T02:28:34;17.90;99.90
52413;DHT22;38339;53.234;6.578;2022-07-18T02:31:00;17.90;99.90
52413;DHT22;38339;53.234;6.578;2022-07-18T02:33:26;17.90;99.90
52413;DHT22;38339;53.234;6.578;2022-07-18T02:35:52;17.80;99.90
52413;DHT22;38339;53.234;6.578;2022-07-18T02:38:18;17.90;99.90
52413;DHT22;38339;53.234;6.578;2022-07-18T02:40:43;17.90;99.90
52413;DHT22;38339;53.234;6.578;2022-07-18T02:43:09;17.90;99.90
52413;DHT22;38339;53.234;6.578;2022-07-18T02:45:35;17.90;99.90
52413;DHT22;38339;53.234;6.578;2022-07-18T02:48:00;17.90;99.90
52413;DHT22;38339;53.234;6.578;2022-07-18T02:50:26;17.90;99.90
52413;DHT22;38339;53.234;6.578;2022-07-18T02:52:52;17.90;99.90
52413;DHT22;38339;53.234;6.578;2022-07-18T02:55:18;17.80;99.90
52413;DHT22;38339;53.234;6.578;2022-07-18T02:57:43;17.90;99.90
52413;DHT22;38339;53.234;6.578;2022-07-18T03:00:11;17.90;99.90
52413;DHT22;38339;53.234;6.578;2022-07-18T03:02:38;17.90;99.90
52413;DHT22;38339;53.234;6.578;2022-07-18T03:05:05;17.90;99.90
52413;DHT22;38339;53.234;6.578;2022-07-18T03:07:31;17.90;99.90
52413;DHT22;38339;53.234;6.578;2022-07-18T03:09:57;17.90;99.90
52413;DHT22;38339;53.234;6.578;2022-07-18T03:12:23;17.90;99.90
52413;DHT22;38339;53.234;6.578;2022-07-18T03:14:49;17.90;99.90
52413;DHT22;38339;53.234;6.578;2022-07-18T03:17:14;17.90;99.90
52413;DHT22;38339;53.234;6.578;2022-07-18T03:19:40;17.90;99.90
52413;DHT22;38339;53.234;6.578;2022-07-18T03:22:06;17.90;99.90
52413;DHT22;38339;53.234;6.578;2022-07-18T03:24:32;17.90;99.90
52413;DHT22;38339;53.234;6.578;2022-07-18T03:26:58;17.90;99.90
52413;DHT22;38339;53.234;6.578;2022-07-18T03:29:23;17.90;99.90
52413;DHT22;38339;53.234;6.578;2022-07-18T03:31:49;17.80;99.90
52413;DHT22;38339;53.234;6.578;2022-07-18T03:34:15;17.90;99.90
52413;DHT22;38339;53.234;6.578;2022-07-18T03:36:42;17.80;99.90
52413;DHT22;38339;53.234;6.578;2022-07-18T03:39:09;17.80;99.90
52413;DHT22;38339;53.234;6.578;2022-07-18T03:41:35;17.80;99.90
52413;DHT22;38339;53.234;6.578;2022-07-18T03:44:01;17.70;99.90
52413;DHT22;38339;53.234;6.578;2022-07-18T03:46:27;17.70;99.90
52413;DHT22;38339;53.234;6.578;2022-07-18T03:48:53;17.70;99.90
52413;DHT22;38339;53.234;6.578;2022-07-18T03:51:18;17.70;99.90
52413;DHT22;38339;53.234;6.578;2022-07-18T03:53:44;17.70;99.90
52413;DHT22;38339;53.234;6.578;2022-07-18T03:56:10;17.60;99.90
52413;DHT22;38339;53.234;6.578;2022-07-18T03:58:36;17.70;99.90
52413;DHT22;38339;53.234;6.578;2022-07-18T04:01:03;17.60;99.90
52413;DHT22;38339;53.234;6.578;2022-07-18T04:03:28;17.70;99.90
52413;DHT22;38339;53.234;6.578;2022-07-18T04:05:54;17.70;99.90
52413;DHT22;38339;53.234;6.578;2022-07-18T04:08:20;17.70;99.90
52413;DHT22;38339;53.234;6.578;2022-07-18T04:10:45;17.70;99.90
52413;DHT22;38339;53.234;6.578;2022-07-18T04:13:11;17.70;99.90
52413;DHT22;38339;53.234;6.578;2022-07-18T04:15:37;17.70;99.90
52413;DHT22;38339;53.234;6.578;2022-07-18T04:18:05;17.80;99.90
52413;DHT22;38339;53.234;6.578;2022-07-18T04:20:31;17.80;99.90
52413;DHT22;38339;53.234;6.578;2022-07-18T04:22:59;17.80;99.90
52413;DHT22;38339;53.234;6.578;2022-07-18T04:25:28;17.80;99.90
52413;DHT22;38339;53.234;6.578;2022-07-18T04:27:55;17.90;99.90
52413;DHT22;38339;53.234;6.578;2022-07-18T04:30:25;17.90;99.90
52413;DHT22;38339;53.234;6.578;2022-07-18T04:32:51;17.90;99.90
52413;DHT22;38339;53.234;6.578;2022-07-18T04:35:17;17.90;99.90
52413;DHT22;38339;53.234;6.578;2022-07-18T04:37:42;17.90;99.90
52413;DHT22;38339;53.234;6.578;2022-07-18T04:40:09;18.00;99.90
52413;DHT22;38339;53.234;6.578;2022-07-18T04:42:35;18.00;99.90
52413;DHT22;38339;53.234;6.578;2022-07-18T04:45:02;18.00;99.90
52413;DHT22;38339;53.234;6.578;2022-07-18T04:47:29;18.10;99.90
52413;DHT22;38339;53.234;6.578;2022-07-18T04:49:54;18.10;99.90
52413;DHT22;38339;53.234;6.578;2022-07-18T04:52:20;18.10;99.90
52413;DHT22;38339;53.234;6.578;2022-07-18T04:54:46;18.20;99.90
52413;DHT22;38339;53.234;6.578;2022-07-18T04:57:12;18.20;99.90
52413;DHT22;38339;53.234;6.578;2022-07-18T04:59:41;18.30;99.90
52413;DHT22;38339;53.234;6.578;2022-07-18T05:02:08;18.30;99.90
52413;DHT22;38339;53.234;6.578;2022-07-18T05:04:33;18.40;99.90
52413;DHT22;38339;53.234;6.578;2022-07-18T05:06:59;18.40;99.90
52413;DHT22;38339;53.234;6.578;2022-07-18T05:09:25;18.40;99.90
52413;DHT22;38339;53.234;6.578;2022-07-18T05:11:51;18.50;99.90
52413;DHT22;38339;53.234;6.578;2022-07-18T05:14:17;18.50;99.90
52413;DHT22;38339;53.234;6.578;2022-07-18T05:16:43;18.50;99.90
52413;DHT22;38339;53.234;6.578;2022-07-18T05:19:09;18.60;99.90
52413;DHT22;38339;53.234;6.578;2022-07-18T05:21:34;18.70;99.90
52413;DHT22;38339;53.234;6.578;2022-07-18T05:24:00;18.70;99.90
52413;DHT22;38339;53.234;6.578;2022-07-18T05:26:26;18.80;99.90
52413;DHT22;38339;53.234;6.578;2022-07-18T05:28:51;18.80;99.90
52413;DHT22;38339;53.234;6.578;2022-07-18T05:31:17;18.80;99.90
52413;DHT22;38339;53.234;6.578;2022-07-18T05:33:43;18.90;99.90
52413;DHT22;38339;53.234;6.578;2022-07-18T05:36:09;18.90;99.90
52413;DHT22;38339;53.234;6.578;2022-07-18T05:38:35;18.90;99.80
52413;DHT22;38339;53.234;6.578;2022-07-18T05:41:00;19.00;99.70
52413;DHT22;38339;53.234;6.578;2022-07-18T05:43:26;19.00;99.70
52413;DHT22;38339;53.234;6.578;2022-07-18T05:45:52;19.00;99.60
52413;DHT22;38339;53.234;6.578;2022-07-18T05:48:17;19.10;99.70
52413;DHT22;38339;53.234;6.578;2022-07-18T05:50:43;19.10;99.60
52413;DHT22;38339;53.234;6.578;2022-07-18T05:53:09;19.10;99.50
52413;DHT22;38339;53.234;6.578;2022-07-18T05:55:35;19.10;99.50
52413;DHT22;38339;53.234;6.578;2022-07-18T05:58:01;19.20;99.20
52413;DHT22;38339;53.234;6.578;2022-07-18T06:00:27;19.20;98.80
52413;DHT22;38339;53.234;6.578;2022-07-18T06:02:52;19.30;98.60
52413;DHT22;38339;53.234;6.578;2022-07-18T06:05:19;19.30;98.40
52413;DHT22;38339;53.234;6.578;2022-07-18T06:07:44;19.40;98.30
52413;DHT22;38339;53.234;6.578;2022-07-18T06:10:10;19.40;98.20
52413;DHT22;38339;53.234;6.578;2022-07-18T06:12:36;19.50;98.10
52413;DHT22;38339;53.234;6.578;2022-07-18T06:15:02;19.50;97.90
52413;DHT22;38339;53.234;6.578;2022-07-18T06:17:30;19.60;97.60
52413;DHT22;38339;53.234;6.578;2022-07-18T06:19:56;19.70;97.40
52413;DHT22;38339;53.234;6.578;2022-07-18T06:22:23;19.70;97.40
52413;DHT22;38339;53.234;6.578;2022-07-18T06:24:49;19.80;97.40
52413;DHT22;38339;53.234;6.578;2022-07-18T06:27:14;19.80;97.50
52413;DHT22;38339;53.234;6.578;2022-07-18T06:29:40;19.90;97.40
52413;DHT22;38339;53.234;6.578;2022-07-18T06:32:06;20.00;97.40
52413;DHT22;38339;53.234;6.578;2022-07-18T06:34:32;20.00;97.30
52413;DHT22;38339;53.234;6.578;2022-07-18T06:36:58;20.10;97.10
52413;DHT22;38339;53.234;6.578;2022-07-18T06:39:23;20.20;96.90
52413;DHT22;38339;53.234;6.578;2022-07-18T06:41:49;20.20;96.60
52413;DHT22;38339;53.234;6.578;2022-07-18T06:44:15;20.30;96.40
52413;DHT22;38339;53.234;6.578;2022-07-18T06:46:41;20.40;96.30
52413;DHT22;38339;53.234;6.578;2022-07-18T06:49:07;20.50;96.40
52413;DHT22;38339;53.234;6.578;2022-07-18T06:51:33;20.50;96.30
52413;DHT22;38339;53.234;6.578;2022-07-18T06:53:59;20.50;96.10
52413;DHT22;38339;53.234;6.578;2022-07-18T06:56:25;20.60;96.00
52413;DHT22;38339;53.234;6.578;2022-07-18T06:58:51;20.70;95.90
52413;DHT22;38339;53.234;6.578;2022-07-18T07:01:19;20.80;95.80
52413;DHT22;38339;53.234;6.578;2022-07-18T07:03:46;20.80;95.50
52413;DHT22;38339;53.234;6.578;2022-07-18T07:06:12;20.90;95.20
52413;DHT22;38339;53.234;6.578;2022-07-18T07:08:38;21.00;95.10
52413;DHT22;38339;53.234;6.578;2022-07-18T07:11:04;21.10;95.00
52413;DHT22;38339;53.234;6.578;2022-07-18T07:13:30;21.10;94.80
52413;DHT22;38339;53.234;6.578;2022-07-18T07:15:55;21.20;94.70
52413;DHT22;38339;53.234;6.578;2022-07-18T07:18:21;21.30;94.50
52413;DHT22;38339;53.234;6.578;2022-07-18T07:20:47;21.30;94.30
52413;DHT22;38339;53.234;6.578;2022-07-18T07:23:13;21.30;94.20
52413;DHT22;38339;53.234;6.578;2022-07-18T07:25:39;21.40;94.10
52413;DHT22;38339;53.234;6.578;2022-07-18T07:28:05;21.40;94.10
52413;DHT22;38339;53.234;6.578;2022-07-18T07:30:33;21.50;93.60
52413;DHT22;38339;53.234;6.578;2022-07-18T07:32:59;21.60;93.70
52413;DHT22;38339;53.234;6.578;2022-07-18T07:35:26;21.70;93.70
52413;DHT22;38339;53.234;6.578;2022-07-18T07:37:58;21.80;93.80
52413;DHT22;38339;53.234;6.578;2022-07-18T07:40:26;21.90;93.70
52413;DHT22;38339;53.234;6.578;2022-07-18T07:42:52;22.00;93.70
52413;DHT22;38339;53.234;6.578;2022-07-18T07:45:18;22.00;93.60
52413;DHT22;38339;53.234;6.578;2022-07-18T07:47:44;22.10;93.50
52413;DHT22;38339;53.234;6.578;2022-07-18T07:50:11;22.10;93.50
52413;DHT22;38339;53.234;6.578;2022-07-18T07:52:38;22.10;93.40
52413;DHT22;38339;53.234;6.578;2022-07-18T07:55:07;22.20;93.50
52413;DHT22;38339;53.234;6.578;2022-07-18T07:57:33;22.20;93.50
52413;DHT22;38339;53.234;6.578;2022-07-18T08:00:03;22.30;93.70
52413;DHT22;38339;53.234;6.578;2022-07-18T08:02:30;22.40;93.50
52413;DHT22;38339;53.234;6.578;2022-07-18T08:04:55;22.50;93.50
52413;DHT22;38339;53.234;6.578;2022-07-18T08:07:21;22.60;93.30
52413;DHT22;38339;53.234;6.578;2022-07-18T08:09:46;22.70;93.30
52413;DHT22;38339;53.234;6.578;2022-07-18T08:12:12;22.80;93.40
52413;DHT22;38339;53.234;6.578;2022-07-18T08:14:38;22.80;93.60
52413;DHT22;38339;53.234;6.578;2022-07-18T08:17:06;22.90;93.00
52413;DHT22;38339;53.234;6.578;2022-07-18T08:19:31;22.90;93.00
52413;DHT22;38339;53.234;6.578;2022-07-18T08:21:57;23.00;93.00
52413;DHT22;38339;53.234;6.578;2022-07-18T08:24:23;23.10;93.10
52413;DHT22;38339;53.234;6.578;2022-07-18T08:26:48;23.10;93.30
52413;DHT22;38339;53.234;6.578;2022-07-18T08:29:14;23.30;93.30
52413;DHT22;38339;53.234;6.578;2022-07-18T08:31:40;23.50;93.10
52413;DHT22;38339;53.234;6.578;2022-07-18T08:34:05;23.60;92.60
52413;DHT22;38339;53.234;6.578;2022-07-18T08:36:31;23.70;92.20
52413;DHT22;38339;53.234;6.578;2022-07-18T08:38:57;23.80;91.80
52413;DHT22;38339;53.234;6.578;2022-07-18T08:41:23;24.00;91.70
52413;DHT22;38339;53.234;6.578;2022-07-18T08:43:49;24.00;91.20
52413;DHT22;38339;53.234;6.578;2022-07-18T08:46:19;24.00;90.60
52413;DHT22;38339;53.234;6.578;2022-07-18T08:48:47;24.10;90.90
52413;DHT22;38339;53.234;6.578;2022-07-18T08:51:13;24.20;90.80
52413;DHT22;38339;53.234;6.578;2022-07-18T08:53:40;24.20;90.50
52413;DHT22;38339;53.234;6.578;2022-07-18T08:56:06;24.20;90.30
52413;DHT22;38339;53.234;6.578;2022-07-18T08:58:33;24.20;90.10
52413;DHT22;38339;53.234;6.578;2022-07-18T09:00:59;24.20;90.00
52413;DHT22;38339;53.234;6.578;2022-07-18T09:03:25;24.20;90.00
52413;DHT22;38339;53.234;6.578;2022-07-18T09:06:11;24.20;89.60
52413;DHT22;38339;53.234;6.578;2022-07-18T09:08:39;24.30;89.50
52413;DHT22;38339;53.234;6.578;2022-07-18T09:11:10;24.20;90.20
52413;DHT22;38339;53.234;6.578;2022-07-18T09:13:39;24.30;89.60
52413;DHT22;38339;53.234;6.578;2022-07-18T09:16:10;24.30;89.10
52413;DHT22;38339;53.234;6.578;2022-07-18T09:18:44;24.30;87.70
52413;DHT22;38339;53.234;6.578;2022-07-18T09:21:11;24.30;87.90
52413;DHT22;38339;53.234;6.578;2022-07-18T09:23:40;24.30;88.10
52413;DHT22;38339;53.234;6.578;2022-07-18T09:26:09;24.40;88.50
52413;DHT22;38339;53.234;6.578;2022-07-18T09:28:50;24.40;88.40
52413;DHT22;38339;53.234;6.578;2022-07-18T09:31:25;24.40;87.90
52413;DHT22;38339;53.234;6.578;2022-07-18T09:33:59;24.50;88.40
52413;DHT22;38339;53.234;6.578;2022-07-18T09:36:26;24.50;88.40
52413;DHT22;38339;53.234;6.578;2022-07-18T09:38:54;24.60;88.10
52413;DHT22;38339;53.234;6.578;2022-07-18T09:41:27;24.60;88.00
52413;DHT22;38339;53.234;6.578;2022-07-18T09:43:53;24.60;88.20
52413;DHT22;38339;53.234;6.578;2022-07-18T09:46:19;24.70;88.50
52413;DHT22;38339;53.234;6.578;2022-07-18T09:48:44;24.70;88.40
52413;DHT22;38339;53.234;6.578;2022-07-18T09:51:10;24.80;88.20
52413;DHT22;38339;53.234;6.578;2022-07-18T09:53:42;24.80;88.10
52413;DHT22;38339;53.234;6.578;2022-07-18T09:56:10;24.90;87.90
52413;DHT22;38339;53.234;6.578;2022-07-18T09:58:53;25.00;86.90
52413;DHT22;38339;53.234;6.578;2022-07-18T10:01:19;25.00;85.30
52413;DHT22;38339;53.234;6.578;2022-07-18T10:03:45;25.00;82.60
52413;DHT22;38339;53.234;6.578;2022-07-18T10:06:11;25.10;82.90
52413;DHT22;38339;53.234;6.578;2022-07-18T10:08:38;25.10;82.90
52413;DHT22;38339;53.234;6.578;2022-07-18T10:11:05;25.20;83.10
52413;DHT22;38339;53.234;6.578;2022-07-18T10:13:33;25.20;82.00
52413;DHT22;38339;53.234;6.578;2022-07-18T10:16:00;25.20;81.80
52413;DHT22;38339;53.234;6.578;2022-07-18T10:18:29;25.20;81.70
52413;DHT22;38339;53.234;6.578;2022-07-18T10:20:59;25.30;80.20
52413;DHT22;38339;53.234;6.578;2022-07-18T10:26:18;25.30;79.20
52413;DHT22;38339;53.234;6.578;2022-07-18T10:33:53;25.30;79.80
52413;DHT22;38339;53.234;6.578;2022-07-18T10:36:20;25.40;80.00
52413;DHT22;38339;53.234;6.578;2022-07-18T10:58:14;25.80;76.30
52413;DHT22;38339;53.234;6.578;2022-07-18T11:00:37;25.80;76.70
52413;DHT22;38339;53.234;6.578;2022-07-18T11:03:04;25.80;76.80
52413;DHT22;38339;53.234;6.578;2022-07-18T11:16:01;26.10;75.00
52413;DHT22;38339;53.234;6.578;2022-07-18T11:18:32;26.20;75.30
52413;DHT22;38339;53.234;6.578;2022-07-18T11:20:58;26.20;74.60
52413;DHT22;38339;53.234;6.578;2022-07-18T11:23:26;26.20;73.90
52413;DHT22;38339;53.234;6.578;2022-07-18T11:25:55;26.30;73.30
52413;DHT22;38339;53.234;6.578;2022-07-18T11:28:23;26.40;72.30
52413;DHT22;38339;53.234;6.578;2022-07-18T11:31:06;26.50;71.40
52413;DHT22;38339;53.234;6.578;2022-07-18T11:33:38;26.60;68.60
52413;DHT22;38339;53.234;6.578;2022-07-18T11:36:15;26.70;68.00
52413;DHT22;38339;53.234;6.578;2022-07-18T11:38:53;26.70;68.20
52413;DHT22;38339;53.234;6.578;2022-07-18T11:41:20;26.80;67.90
52413;DHT22;38339;53.234;6.578;2022-07-18T11:43:49;26.80;68.40
52413;DHT22;38339;53.234;6.578;2022-07-18T11:46:17;26.90;68.60
52413;DHT22;38339;53.234;6.578;2022-07-18T11:48:45;26.90;67.10
52413;DHT22;38339;53.234;6.578;2022-07-18T11:51:19;27.00;67.10
52413;DHT22;38339;53.234;6.578;2022-07-18T11:53:47;27.00;66.90
52413;DHT22;38339;53.234;6.578;2022-07-18T11:56:14;27.00;68.00
52413;DHT22;38339;53.234;6.578;2022-07-18T11:58:41;27.00;66.20
52413;DHT22;38339;53.234;6.578;2022-07-18T12:01:07;26.90;66.90
52413;DHT22;38339;53.234;6.578;2022-07-18T12:03:40;26.90;67.10
52413;DHT22;38339;53.234;6.578;2022-07-18T12:06:14;27.00;66.30
52413;DHT22;38339;53.234;6.578;2022-07-18T12:08:45;27.00;67.30
52413;DHT22;38339;53.234;6.578;2022-07-18T12:16:42;27.10;67.10
52413;DHT22;38339;53.234;6.578;2022-07-18T12:19:12;27.10;68.10
52413;DHT22;38339;53.234;6.578;2022-07-18T12:24:18;27.20;67.10
52413;DHT22;38339;53.234;6.578;2022-07-18T12:26:44;27.20;67.00
52413;DHT22;38339;53.234;6.578;2022-07-18T12:29:10;27.20;66.30
52413;DHT22;38339;53.234;6.578;2022-07-18T12:31:44;27.20;65.90
52413;DHT22;38339;53.234;6.578;2022-07-18T12:34:15;27.30;64.50
52413;DHT22;38339;53.234;6.578;2022-07-18T12:36:57;27.30;64.60
52413;DHT22;38339;53.234;6.578;2022-07-18T12:39:33;27.30;63.60
52413;DHT22;38339;53.234;6.578;2022-07-18T12:42:00;27.40;64.80
52413;DHT22;38339;53.234;6.578;2022-07-18T12:44:27;27.50;63.90
52413;DHT22;38339;53.234;6.578;2022-07-18T12:46:53;27.50;64.60
52413;DHT22;38339;53.234;6.578;2022-07-18T12:49:19;27.50;65.00
52413;DHT22;38339;53.234;6.578;2022-07-18T12:51:45;27.50;65.10
52413;DHT22;38339;53.234;6.578;2022-07-18T12:54:11;27.60;65.50
52413;DHT22;38339;53.234;6.578;2022-07-18T12:56:37;27.70;65.10
52413;DHT22;38339;53.234;6.578;2022-07-18T12:59:03;27.80;65.20
52413;DHT22;38339;53.234;6.578;2022-07-18T13:01:30;27.80;65.00
52413;DHT22;38339;53.234;6.578;2022-07-18T13:03:56;27.70;65.00
52413;DHT22;38339;53.234;6.578;2022-07-18T13:06:22;27.80;65.20
52413;DHT22;38339;53.234;6.578;2022-07-18T13:08:47;27.80;65.40
52413;DHT22;38339;53.234;6.578;2022-07-18T13:11:13;27.90;65.70
52413;DHT22;38339;53.234;6.578;2022-07-18T13:13:39;27.90;65.70
52413;DHT22;38339;53.234;6.578;2022-07-18T13:16:05;27.90;66.20
52413;DHT22;38339;53.234;6.578;2022-07-18T13:18:31;27.90;66.00
52413;DHT22;38339;53.234;6.578;2022-07-18T13:20:57;27.90;66.40
52413;DHT22;38339;53.234;6.578;2022-07-18T13:23:23;27.80;66.50
52413;DHT22;38339;53.234;6.578;2022-07-18T13:25:48;27.80;66.60
52413;DHT22;38339;53.234;6.578;2022-07-18T13:28:14;27.80;66.80
52413;DHT22;38339;53.234;6.578;2022-07-18T13:30:40;27.90;66.10
52413;DHT22;38339;53.234;6.578;2022-07-18T13:33:06;28.00;64.90
52413;DHT22;38339;53.234;6.578;2022-07-18T13:35:33;28.00;63.60
52413;DHT22;38339;53.234;6.578;2022-07-18T13:37:59;28.10;62.60
52413;DHT22;38339;53.234;6.578;2022-07-18T13:40:25;28.10;62.30
52413;DHT22;38339;53.234;6.578;2022-07-18T13:42:50;28.10;61.80
52413;DHT22;38339;53.234;6.578;2022-07-18T13:45:16;28.20;61.80
52413;DHT22;38339;53.234;6.578;2022-07-18T13:47:45;28.30;61.80
52413;DHT22;38339;53.234;6.578;2022-07-18T13:50:11;28.40;62.20
52413;DHT22;38339;53.234;6.578;2022-07-18T13:52:37;28.40;62.50
52413;DHT22;38339;53.234;6.578;2022-07-18T13:55:03;28.30;62.90
52413;DHT22;38339;53.234;6.578;2022-07-18T13:57:29;28.40;63.00
52413;DHT22;38339;53.234;6.578;2022-07-18T13:59:56;28.30;63.80
52413;DHT22;38339;53.234;6.578;2022-07-18T14:02:22;28.20;63.00
52413;DHT22;38339;53.234;6.578;2022-07-18T14:04:48;28.20;63.60
52413;DHT22;38339;53.234;6.578;2022-07-18T14:07:13;28.20;63.40
52413;DHT22;38339;53.234;6.578;2022-07-18T14:09:44;28.20;63.20
52413;DHT22;38339;53.234;6.578;2022-07-18T14:12:10;28.10;62.20
52413;DHT22;38339;53.234;6.578;2022-07-18T14:14:36;28.10;62.80
52413;DHT22;38339;53.234;6.578;2022-07-18T14:17:01;28.00;62.70
52413;DHT22;38339;53.234;6.578;2022-07-18T14:19:27;27.90;62.70
52413;DHT22;38339;53.234;6.578;2022-07-18T14:21:52;28.00;63.30
52413;DHT22;38339;53.234;6.578;2022-07-18T14:24:18;27.90;62.90
52413;DHT22;38339;53.234;6.578;2022-07-18T14:26:44;27.90;62.60
52413;DHT22;38339;53.234;6.578;2022-07-18T14:29:09;27.90;63.00
52413;DHT22;38339;53.234;6.578;2022-07-18T14:31:36;28.00;63.60
52413;DHT22;38339;53.234;6.578;2022-07-18T14:34:03;28.00;63.60
52413;DHT22;38339;53.234;6.578;2022-07-18T14:36:29;28.20;63.90
52413;DHT22;38339;53.234;6.578;2022-07-18T14:38:56;28.40;63.90
52413;DHT22;38339;53.234;6.578;2022-07-18T14:41:22;28.60;63.70
52413;DHT22;38339;53.234;6.578;2022-07-18T14:43:47;28.90;63.80
52413;DHT22;38339;53.234;6.578;2022-07-18T14:46:13;29.10;63.40
52413;DHT22;38339;53.234;6.578;2022-07-18T14:48:39;29.40;63.20
52413;DHT22;38339;53.234;6.578;2022-07-18T14:51:04;29.60;62.30
52413;DHT22;38339;53.234;6.578;2022-07-18T14:53:31;29.80;61.80
52413;DHT22;38339;53.234;6.578;2022-07-18T14:55:58;29.90;62.10
52413;DHT22;38339;53.234;6.578;2022-07-18T14:58:24;30.00;62.30
52413;DHT22;38339;53.234;6.578;2022-07-18T15:00:49;30.10;60.90
52413;DHT22;38339;53.234;6.578;2022-07-18T15:03:15;30.00;61.20
52413;DHT22;38339;53.234;6.578;2022-07-18T15:05:41;30.10;61.00
52413;DHT22;38339;53.234;6.578;2022-07-18T15:08:07;30.20;60.50
52413;DHT22;38339;53.234;6.578;2022-07-18T15:10:33;30.20;60.10
52413;DHT22;38339;53.234;6.578;2022-07-18T15:12:59;30.20;60.10
52413;DHT22;38339;53.234;6.578;2022-07-18T15:15:24;30.10;59.70
52413;DHT22;38339;53.234;6.578;2022-07-18T15:17:51;30.10;60.40
52413;DHT22;38339;53.234;6.578;2022-07-18T15:20:17;30.20;61.30
52413;DHT22;38339;53.234;6.578;2022-07-18T15:22:44;30.40;61.60
52413;DHT22;38339;53.234;6.578;2022-07-18T15:25:10;30.70;60.50
52413;DHT22;38339;53.234;6.578;2022-07-18T15:27:36;30.70;60.30
52413;DHT22;38339;53.234;6.578;2022-07-18T15:30:03;30.70;60.30
52413;DHT22;38339;53.234;6.578;2022-07-18T15:32:29;30.70;60.40
52413;DHT22;38339;53.234;6.578;2022-07-18T15:34:54;30.60;60.30
52413;DHT22;38339;53.234;6.578;2022-07-18T15:37:20;30.60;60.80
52413;DHT22;38339;53.234;6.578;2022-07-18T15:39:46;30.70;61.30
52413;DHT22;38339;53.234;6.578;2022-07-18T15:42:11;31.10;60.90
52413;DHT22;38339;53.234;6.578;2022-07-18T15:44:37;31.50;59.90
52413;DHT22;38339;53.234;6.578;2022-07-18T15:47:08;32.30;59.40
52413;DHT22;38339;53.234;6.578;2022-07-18T15:49:35;33.40;58.40
52413;DHT22;38339;53.234;6.578;2022-07-18T15:52:03;34.10;57.80
52413;DHT22;38339;53.234;6.578;2022-07-18T15:54:35;34.40;56.70
52413;DHT22;38339;53.234;6.578;2022-07-18T15:57:02;34.70;56.90
52413;DHT22;38339;53.234;6.578;2022-07-18T15:59:28;35.30;57.10
52413;DHT22;38339;53.234;6.578;2022-07-18T16:01:54;36.10;56.70
52413;DHT22;38339;53.234;6.578;2022-07-18T16:04:21;37.10;54.80
52413;DHT22;38339;53.234;6.578;2022-07-18T16:06:47;37.70;52.70
52413;DHT22;38339;53.234;6.578;2022-07-18T16:09:12;37.90;51.30
52413;DHT22;38339;53.234;6.578;2022-07-18T16:11:38;38.30;50.90
52413;DHT22;38339;53.234;6.578;2022-07-18T16:14:07;38.50;49.60